sensor_id;sensor_type;location;lat;lon;timestamp;P1;durP1;ratioP1;P2;durP2;ratioP2
10059;SDS011;5069;49.306;8.636;2023-12-20T00:01:44;9.77;;;6.83;;
10059;SDS011;5069;49.306;8.636;2023-12-20T00:04:45;9.33;;;7.63;;
10059;SDS011;5069;49.306;8.636;2023-12-20T00:07:47;8.80;;;7.23;;
10059;SDS011;5069;49.306;8.636;2023-12-20T00:10:49;11.10;;;7.50;;
10059;SDS011;5069;49.306;8.636;2023-12-20T00:13:51;10.73;;;7.90;;
10059;SDS011;5069;49.306;8.636;2023-12-20T00:16:53;9.33;;;7.27;;
10059;SDS011;5069;49.306;8.636;2023-12-20T00:19:54;10.00;;;7.47;;
10059;SDS011;5069;49.306;8.636;2023-12-20T00:22:56;8.10;;;7.07;;
10059;SDS011;5069;49.306;8.636;2023-12-20T00:26:01;9.80;;;7.70;;
10059;SDS011;5069;49.306;8.636;2023-12-20T00:29:03;11.57;;;8.03;;
10059;SDS011;5069;49.306;8.636;2023-12-20T00:32:04;11.90;;;8.40;;
10059;SDS011;5069;49.306;8.636;2023-12-20T00:35:06;9.87;;;7.80;;
10059;SDS011;5069;49.306;8.636;2023-12-20T00:38:08;10.17;;;8.37;;
10059;SDS011;5069;49.306;8.636;2023-12-20T00:41:10;10.27;;;8.30;;
10059;SDS011;5069;49.306;8.636;2023-12-20T00:44:11;10.13;;;7.60;;
10059;SDS011;5069;49.306;8.636;2023-12-20T00:47:13;12.83;;;7.40;;
10059;SDS011;5069;49.306;8.636;2023-12-20T00:50:15;9.73;;;7.40;;
10059;SDS011;5069;49.306;8.636;2023-12-20T00:53:16;8.27;;;6.63;;
10059;SDS011;5069;49.306;8.636;2023-12-20T00:56:18;9.27;;;6.70;;
10059;SDS011;5069;49.306;8.636;2023-12-20T00:59:19;8.73;;;6.50;;
10059;SDS011;5069;49.306;8.636;2023-12-20T01:02:21;8.83;;;6.70;;
10059;SDS011;5069;49.306;8.636;2023-12-20T01:05:22;9.10;;;7.00;;
10059;SDS011;5069;49.306;8.636;2023-12-20T01:08:24;7.83;;;6.23;;
10059;SDS011;5069;49.306;8.636;2023-12-20T01:11:25;8.33;;;6.60;;
10059;SDS011;5069;49.306;8.636;2023-12-20T01:14:28;8.37;;;6.57;;
10059;SDS011;5069;49.306;8.636;2023-12-20T01:17:29;8.30;;;6.20;;
10059;SDS011;5069;49.306;8.636;2023-12-20T01:20:31;8.93;;;6.80;;
10059;SDS011;5069;49.306;8.636;2023-12-20T01:23:32;8.40;;;5.83;;
10059;SDS011;5069;49.306;8.636;2023-12-20T01:26:34;8.70;;;6.63;;
10059;SDS011;5069;49.306;8.636;2023-12-20T01:29:35;8.77;;;6.53;;
10059;SDS011;5069;49.306;8.636;2023-12-20T01:32:37;7.53;;;6.37;;
10059;SDS011;5069;49.306;8.636;2023-12-20T01:35:39;9.27;;;6.73;;
10059;SDS011;5069;49.306;8.636;2023-12-20T01:38:41;7.90;;;6.57;;
10059;SDS011;5069;49.306;8.636;2023-12-20T01:41:42;9.27;;;6.53;;
10059;SDS011;5069;49.306;8.636;2023-12-20T01:44:44;7.13;;;6.23;;
10059;SDS011;5069;49.306;8.636;2023-12-20T01:47:45;7.83;;;5.77;;
10059;SDS011;5069;49.306;8.636;2023-12-20T01:50:47;7.27;;;6.27;;
10059;SDS011;5069;49.306;8.636;2023-12-20T01:53:49;6.03;;;5.43;;
10059;SDS011;5069;49.306;8.636;2023-12-20T01:56:51;7.03;;;5.37;;
10059;SDS011;5069;49.306;8.636;2023-12-20T01:59:52;6.47;;;4.80;;
10059;SDS011;5069;49.306;8.636;2023-12-20T02:02:54;6.70;;;5.23;;
10059;SDS011;5069;49.306;8.636;2023-12-20T02:05:56;8.50;;;5.20;;
10059;SDS011;5069;49.306;8.636;2023-12-20T02:08:58;5.37;;;4.50;;
10059;SDS011;5069;49.306;8.636;2023-12-20T02:11:59;5.90;;;4.40;;
10059;SDS011;5069;49.306;8.636;2023-12-20T02:15:01;6.37;;;4.60;;
10059;SDS011;5069;49.306;8.636;2023-12-20T02:18:03;6.03;;;4.90;;
10059;SDS011;5069;49.306;8.636;2023-12-20T02:21:06;5.73;;;5.03;;
10059;SDS011;5069;49.306;8.636;2023-12-20T02:24:07;6.37;;;4.20;;
10059;SDS011;5069;49.306;8.636;2023-12-20T02:27:09;4.50;;;4.07;;
10059;SDS011;5069;49.306;8.636;2023-12-20T02:30:10;5.93;;;4.23;;
10059;SDS011;5069;49.306;8.636;2023-12-20T02:33:12;6.23;;;4.87;;
10059;SDS011;5069;49.306;8.636;2023-12-20T02:36:15;5.00;;;4.43;;
10059;SDS011;5069;49.306;8.636;2023-12-20T02:39:17;7.27;;;4.83;;
10059;SDS011;5069;49.306;8.636;2023-12-20T02:42:20;4.73;;;4.23;;
10059;SDS011;5069;49.306;8.636;2023-12-20T02:45:21;5.27;;;4.67;;
10059;SDS011;5069;49.306;8.636;2023-12-20T02:48:22;6.63;;;4.30;;
10059;SDS011;5069;49.306;8.636;2023-12-20T02:51:24;4.33;;;3.93;;
10059;SDS011;5069;49.306;8.636;2023-12-20T02:54:26;4.70;;;3.80;;
10059;SDS011;5069;49.306;8.636;2023-12-20T02:57:27;6.20;;;4.13;;
10059;SDS011;5069;49.306;8.636;2023-12-20T03:00:29;4.67;;;3.97;;
10059;SDS011;5069;49.306;8.636;2023-12-20T03:03:31;4.60;;;3.80;;
10059;SDS011;5069;49.306;8.636;2023-12-20T03:06:32;4.33;;;3.93;;
10059;SDS011;5069;49.306;8.636;2023-12-20T03:09:34;6.17;;;4.33;;
10059;SDS011;5069;49.306;8.636;2023-12-20T03:12:55;4.03;;;3.63;;
10059;SDS011;5069;49.306;8.636;2023-12-20T03:15:57;4.10;;;3.60;;
10059;SDS011;5069;49.306;8.636;2023-12-20T03:18:58;4.47;;;3.50;;
10059;SDS011;5069;49.306;8.636;2023-12-20T03:22:00;4.40;;;3.97;;
10059;SDS011;5069;49.306;8.636;2023-12-20T03:25:02;3.97;;;3.50;;
10059;SDS011;5069;49.306;8.636;2023-12-20T03:28:04;4.17;;;3.40;;
10059;SDS011;5069;49.306;8.636;2023-12-20T03:31:06;3.90;;;3.47;;
10059;SDS011;5069;49.306;8.636;2023-12-20T03:34:07;4.47;;;3.20;;
10059;SDS011;5069;49.306;8.636;2023-12-20T03:37:09;4.97;;;3.33;;
10059;SDS011;5069;49.306;8.636;2023-12-20T03:40:10;3.97;;;3.57;;
10059;SDS011;5069;49.306;8.636;2023-12-20T03:43:12;4.33;;;3.47;;
10059;SDS011;5069;49.306;8.636;2023-12-20T03:46:14;4.30;;;3.50;;
10059;SDS011;5069;49.306;8.636;2023-12-20T03:49:15;4.37;;;3.20;;
10059;SDS011;5069;49.306;8.636;2023-12-20T03:52:17;3.50;;;3.07;;
10059;SDS011;5069;49.306;8.636;2023-12-20T03:55:18;4.20;;;3.40;;
10059;SDS011;5069;49.306;8.636;2023-12-20T03:58:20;3.50;;;3.20;;
10059;SDS011;5069;49.306;8.636;2023-12-20T04:01:21;3.23;;;2.93;;
10059;SDS011;5069;49.306;8.636;2023-12-20T04:04:23;5.60;;;3.60;;
10059;SDS011;5069;49.306;8.636;2023-12-20T04:07:25;4.33;;;3.50;;
10059;SDS011;5069;49.306;8.636;2023-12-20T04:10:26;4.23;;;3.33;;
10059;SDS011;5069;49.306;8.636;2023-12-20T04:13:28;5.73;;;3.57;;
10059;SDS011;5069;49.306;8.636;2023-12-20T04:16:29;4.50;;;3.40;;
10059;SDS011;5069;49.306;8.636;2023-12-20T04:19:31;4.43;;;3.37;;
10059;SDS011;5069;49.306;8.636;2023-12-20T04:22:32;4.93;;;3.60;;
10059;SDS011;5069;49.306;8.636;2023-12-20T04:25:34;4.57;;;3.80;;
10059;SDS011;5069;49.306;8.636;2023-12-20T04:28:36;4.17;;;3.57;;
10059;SDS011;5069;49.306;8.636;2023-12-20T04:31:37;4.40;;;3.57;;
10059;SDS011;5069;49.306;8.636;2023-12-20T04:34:39;3.87;;;3.17;;
10059;SDS011;5069;49.306;8.636;2023-12-20T04:37:40;3.70;;;3.30;;
10059;SDS011;5069;49.306;8.636;2023-12-20T04:40:41;3.07;;;2.77;;
10059;SDS011;5069;49.306;8.636;2023-12-20T04:43:43;3.50;;;3.20;;
10059;SDS011;5069;49.306;8.636;2023-12-20T04:46:44;3.50;;;3.20;;
10059;SDS011;5069;49.306;8.636;2023-12-20T04:49:46;3.47;;;2.80;;
10059;SDS011;5069;49.306;8.636;2023-12-20T04:52:47;4.40;;;2.90;;
10059;SDS011;5069;49.306;8.636;2023-12-20T04:55:49;4.07;;;3.20;;
10059;SDS011;5069;49.306;8.636;2023-12-20T04:58:50;4.10;;;3.00;;
10059;SDS011;5069;49.306;8.636;2023-12-20T05:01:52;3.90;;;3.17;;
10059;SDS011;5069;49.306;8.636;2023-12-20T05:04:54;5.50;;;2.80;;
10059;SDS011;5069;49.306;8.636;2023-12-20T05:07:56;3.80;;;3.10;;
10059;SDS011;5069;49.306;8.636;2023-12-20T05:10:58;3.53;;;2.50;;
10059;SDS011;5069;49.306;8.636;2023-12-20T05:13:59;2.87;;;2.67;;
10059;SDS011;5069;49.306;8.636;2023-12-20T05:17:01;3.00;;;2.73;;
10059;SDS011;5069;49.306;8.636;2023-12-20T05:20:04;4.73;;;2.63;;
10059;SDS011;5069;49.306;8.636;2023-12-20T05:23:06;3.13;;;2.83;;
10059;SDS011;5069;49.306;8.636;2023-12-20T05:26:08;3.43;;;2.50;;
10059;SDS011;5069;49.306;8.636;2023-12-20T05:29:09;2.80;;;2.60;;
10059;SDS011;5069;49.306;8.636;2023-12-20T05:32:11;3.90;;;2.47;;
10059;SDS011;5069;49.306;8.636;2023-12-20T05:35:12;3.47;;;3.00;;
10059;SDS011;5069;49.306;8.636;2023-12-20T05:38:14;3.67;;;3.30;;
10059;SDS011;5069;49.306;8.636;2023-12-20T05:41:15;4.13;;;3.23;;
10059;SDS011;5069;49.306;8.636;2023-12-20T05:44:17;3.50;;;3.20;;
10059;SDS011;5069;49.306;8.636;2023-12-20T05:47:18;3.30;;;3.00;;
10059;SDS011;5069;49.306;8.636;2023-12-20T05:50:20;4.40;;;3.10;;
10059;SDS011;5069;49.306;8.636;2023-12-20T05:53:22;3.37;;;3.07;;
10059;SDS011;5069;49.306;8.636;2023-12-20T05:56:23;6.60;;;3.10;;
10059;SDS011;5069;49.306;8.636;2023-12-20T05:59:25;4.40;;;3.13;;
10059;SDS011;5069;49.306;8.636;2023-12-20T06:02:26;3.23;;;2.93;;
10059;SDS011;5069;49.306;8.636;2023-12-20T06:05:28;4.60;;;2.87;;
10059;SDS011;5069;49.306;8.636;2023-12-20T06:08:29;5.33;;;3.23;;
10059;SDS011;5069;49.306;8.636;2023-12-20T06:11:31;3.83;;;3.30;;
10059;SDS011;5069;49.306;8.636;2023-12-20T06:14:33;3.87;;;3.47;;
10059;SDS011;5069;49.306;8.636;2023-12-20T06:17:34;5.60;;;3.13;;
10059;SDS011;5069;49.306;8.636;2023-12-20T06:20:36;3.20;;;2.90;;
10059;SDS011;5069;49.306;8.636;2023-12-20T06:23:38;3.57;;;3.27;;
10059;SDS011;5069;49.306;8.636;2023-12-20T06:26:39;3.50;;;3.20;;
10059;SDS011;5069;49.306;8.636;2023-12-20T06:29:41;3.77;;;3.10;;
10059;SDS011;5069;49.306;8.636;2023-12-20T06:32:44;3.97;;;2.83;;
10059;SDS011;5069;49.306;8.636;2023-12-20T06:35:45;3.83;;;3.00;;
10059;SDS011;5069;49.306;8.636;2023-12-20T06:38:47;4.17;;;3.33;;
10059;SDS011;5069;49.306;8.636;2023-12-20T06:41:48;3.73;;;3.20;;
10059;SDS011;5069;49.306;8.636;2023-12-20T06:44:49;3.73;;;3.03;;
10059;SDS011;5069;49.306;8.636;2023-12-20T06:47:51;4.30;;;2.70;;
10059;SDS011;5069;49.306;8.636;2023-12-20T06:50:53;3.97;;;2.70;;
10059;SDS011;5069;49.306;8.636;2023-12-20T06:53:54;3.40;;;3.10;;
10059;SDS011;5069;49.306;8.636;2023-12-20T06:56:56;3.67;;;2.90;;
10059;SDS011;5069;49.306;8.636;2023-12-20T06:59:57;3.37;;;3.00;;
10059;SDS011;5069;49.306;8.636;2023-12-20T07:02:59;3.40;;;3.03;;
10059;SDS011;5069;49.306;8.636;2023-12-20T07:06:00;3.83;;;3.40;;
10059;SDS011;5069;49.306;8.636;2023-12-20T07:09:02;3.43;;;2.97;;
10059;SDS011;5069;49.306;8.636;2023-12-20T07:12:03;3.33;;;3.00;;
10059;SDS011;5069;49.306;8.636;2023-12-20T07:15:05;3.90;;;3.27;;
10059;SDS011;5069;49.306;8.636;2023-12-20T07:18:08;3.93;;;3.17;;
10059;SDS011;5069;49.306;8.636;2023-12-20T07:21:09;3.60;;;3.30;;
10059;SDS011;5069;49.306;8.636;2023-12-20T07:24:11;6.90;;;3.37;;
10059;SDS011;5069;49.306;8.636;2023-12-20T07:27:12;3.27;;;2.83;;
10059;SDS011;5069;49.306;8.636;2023-12-20T07:30:14;3.43;;;3.13;;
10059;SDS011;5069;49.306;8.636;2023-12-20T07:33:16;3.87;;;3.00;;
10059;SDS011;5069;49.306;8.636;2023-12-20T07:36:18;4.97;;;3.53;;
10059;SDS011;5069;49.306;8.636;2023-12-20T07:39:21;3.93;;;2.93;;
10059;SDS011;5069;49.306;8.636;2023-12-20T07:42:22;3.50;;;2.90;;
10059;SDS011;5069;49.306;8.636;2023-12-20T07:45:24;3.17;;;2.87;;
10059;SDS011;5069;49.306;8.636;2023-12-20T07:48:25;3.57;;;3.17;;
10059;SDS011;5069;49.306;8.636;2023-12-20T07:51:27;3.73;;;3.40;;
10059;SDS011;5069;49.306;8.636;2023-12-20T07:54:28;6.50;;;3.80;;
10059;SDS011;5069;49.306;8.636;2023-12-20T07:57:30;4.40;;;4.00;;
10059;SDS011;5069;49.306;8.636;2023-12-20T08:00:31;5.37;;;4.87;;
10059;SDS011;5069;49.306;8.636;2023-12-20T08:03:33;5.20;;;4.73;;
10059;SDS011;5069;49.306;8.636;2023-12-20T08:06:35;5.53;;;5.00;;
10059;SDS011;5069;49.306;8.636;2023-12-20T08:09:36;5.80;;;4.97;;
10059;SDS011;5069;49.306;8.636;2023-12-20T08:12:38;5.50;;;5.00;;
10059;SDS011;5069;49.306;8.636;2023-12-20T08:15:41;4.87;;;4.40;;
10059;SDS011;5069;49.306;8.636;2023-12-20T08:18:42;4.87;;;4.37;;
10059;SDS011;5069;49.306;8.636;2023-12-20T08:21:44;6.47;;;4.90;;
10059;SDS011;5069;49.306;8.636;2023-12-20T08:24:46;5.00;;;4.47;;
10059;SDS011;5069;49.306;8.636;2023-12-20T08:27:47;6.77;;;4.50;;
10059;SDS011;5069;49.306;8.636;2023-12-20T08:30:49;4.77;;;3.97;;
10059;SDS011;5069;49.306;8.636;2023-12-20T08:33:55;4.07;;;3.70;;
10059;SDS011;5069;49.306;8.636;2023-12-20T08:36:57;6.33;;;4.00;;
10059;SDS011;5069;49.306;8.636;2023-12-20T08:39:58;4.53;;;3.50;;
10059;SDS011;5069;49.306;8.636;2023-12-20T08:43:00;4.80;;;3.80;;
10059;SDS011;5069;49.306;8.636;2023-12-20T08:46:01;7.63;;;4.80;;
10059;SDS011;5069;49.306;8.636;2023-12-20T08:49:03;8.43;;;4.37;;
10059;SDS011;5069;49.306;8.636;2023-12-20T08:52:05;5.87;;;3.83;;
10059;SDS011;5069;49.306;8.636;2023-12-20T08:55:07;4.37;;;3.27;;
10059;SDS011;5069;49.306;8.636;2023-12-20T08:58:09;7.00;;;3.47;;
10059;SDS011;5069;49.306;8.636;2023-12-20T09:01:11;4.37;;;3.13;;
10059;SDS011;5069;49.306;8.636;2023-12-20T09:04:12;4.70;;;3.10;;
10059;SDS011;5069;49.306;8.636;2023-12-20T09:07:24;3.47;;;2.40;;
10059;SDS011;5069;49.306;8.636;2023-12-20T09:10:27;3.93;;;2.33;;
10059;SDS011;5069;49.306;8.636;2023-12-20T09:13:29;4.33;;;2.10;;
10059;SDS011;5069;49.306;8.636;2023-12-20T09:16:30;6.87;;;2.27;;
10059;SDS011;5069;49.306;8.636;2023-12-20T09:19:33;7.57;;;2.80;;
10059;SDS011;5069;49.306;8.636;2023-12-20T09:22:34;4.47;;;2.20;;
10059;SDS011;5069;49.306;8.636;2023-12-20T09:25:36;4.00;;;2.10;;
10059;SDS011;5069;49.306;8.636;2023-12-20T09:28:38;7.20;;;2.13;;
10059;SDS011;5069;49.306;8.636;2023-12-20T09:31:41;3.13;;;1.97;;
10059;SDS011;5069;49.306;8.636;2023-12-20T09:34:45;3.90;;;1.80;;
10059;SDS011;5069;49.306;8.636;2023-12-20T09:37:46;5.57;;;2.03;;
10059;SDS011;5069;49.306;8.636;2023-12-20T09:40:49;7.13;;;2.30;;
10059;SDS011;5069;49.306;8.636;2023-12-20T09:43:50;6.27;;;1.87;;
10059;SDS011;5069;49.306;8.636;2023-12-20T09:46:56;4.77;;;1.87;;
10059;SDS011;5069;49.306;8.636;2023-12-20T09:49:59;6.17;;;2.27;;
10059;SDS011;5069;49.306;8.636;2023-12-20T09:53:01;4.07;;;1.90;;
10059;SDS011;5069;49.306;8.636;2023-12-20T09:56:05;3.93;;;2.00;;
10059;SDS011;5069;49.306;8.636;2023-12-20T09:59:07;7.57;;;2.10;;
10059;SDS011;5069;49.306;8.636;2023-12-20T10:02:11;4.43;;;1.87;;
10059;SDS011;5069;49.306;8.636;2023-12-20T10:05:16;5.75;;;1.95;;
10059;SDS011;5069;49.306;8.636;2023-12-20T10:08:22;3.03;;;1.60;;
10059;SDS011;5069;49.306;8.636;2023-12-20T10:11:24;6.87;;;1.83;;
10059;SDS011;5069;49.306;8.636;2023-12-20T10:14:26;7.73;;;1.67;;
10059;SDS011;5069;49.306;8.636;2023-12-20T10:17:27;4.50;;;1.80;;
10059;SDS011;5069;49.306;8.636;2023-12-20T10:20:30;8.30;;;1.80;;
10059;SDS011;5069;49.306;8.636;2023-12-20T10:23:32;6.87;;;1.73;;
10059;SDS011;5069;49.306;8.636;2023-12-20T10:26:34;4.43;;;1.43;;
10059;SDS011;5069;49.306;8.636;2023-12-20T10:29:36;8.47;;;1.50;;
10059;SDS011;5069;49.306;8.636;2023-12-20T10:32:39;4.10;;;1.63;;
10059;SDS011;5069;49.306;8.636;2023-12-20T10:35:42;3.27;;;1.40;;
10059;SDS011;5069;49.306;8.636;2023-12-20T10:38:48;3.47;;;1.43;;
10059;SDS011;5069;49.306;8.636;2023-12-20T10:41:51;4.13;;;1.60;;
10059;SDS011;5069;49.306;8.636;2023-12-20T10:44:53;9.63;;;2.10;;
10059;SDS011;5069;49.306;8.636;2023-12-20T10:47:55;6.13;;;1.63;;
10059;SDS011;5069;49.306;8.636;2023-12-20T10:50:57;5.80;;;2.00;;
10059;SDS011;5069;49.306;8.636;2023-12-20T10:53:59;4.90;;;1.70;;
10059;SDS011;5069;49.306;8.636;2023-12-20T10:57:00;5.03;;;1.90;;
10059;SDS011;5069;49.306;8.636;2023-12-20T11:00:07;4.60;;;1.50;;
10059;SDS011;5069;49.306;8.636;2023-12-20T11:03:12;3.53;;;1.70;;
10059;SDS011;5069;49.306;8.636;2023-12-20T11:09:38;4.23;;;1.50;;
10059;SDS011;5069;49.306;8.636;2023-12-20T11:16:28;4.50;;;2.10;;
10059;SDS011;5069;49.306;8.636;2023-12-20T11:22:59;5.10;;;2.13;;
10059;SDS011;5069;49.306;8.636;2023-12-20T11:26:01;7.90;;;1.90;;
10059;SDS011;5069;49.306;8.636;2023-12-20T11:32:35;3.97;;;1.60;;
10059;SDS011;5069;49.306;8.636;2023-12-20T11:35:41;6.10;;;2.00;;
10059;SDS011;5069;49.306;8.636;2023-12-20T11:39:17;7.10;;;2.20;;
10059;SDS011;5069;49.306;8.636;2023-12-20T11:42:14;6.60;;;2.30;;
10059;SDS011;5069;49.306;8.636;2023-12-20T11:45:18;6.13;;;1.97;;
10059;SDS011;5069;49.306;8.636;2023-12-20T11:48:23;7.90;;;2.30;;
10059;SDS011;5069;49.306;8.636;2023-12-20T11:51:24;5.77;;;2.60;;
10059;SDS011;5069;49.306;8.636;2023-12-20T11:54:30;4.77;;;2.33;;
10059;SDS011;5069;49.306;8.636;2023-12-20T11:57:32;9.50;;;2.63;;
10059;SDS011;5069;49.306;8.636;2023-12-20T12:00:33;6.30;;;2.50;;
10059;SDS011;5069;49.306;8.636;2023-12-20T12:03:35;7.73;;;2.37;;
10059;SDS011;5069;49.306;8.636;2023-12-20T12:06:37;5.90;;;2.60;;
10059;SDS011;5069;49.306;8.636;2023-12-20T12:09:39;6.00;;;2.50;;
10059;SDS011;5069;49.306;8.636;2023-12-20T12:12:40;6.37;;;2.50;;
10059;SDS011;5069;49.306;8.636;2023-12-20T12:15:42;9.50;;;2.67;;
10059;SDS011;5069;49.306;8.636;2023-12-20T12:18:44;5.53;;;2.90;;
10059;SDS011;5069;49.306;8.636;2023-12-20T12:21:46;7.87;;;2.43;;
10059;SDS011;5069;49.306;8.636;2023-12-20T12:24:48;4.67;;;2.40;;
10059;SDS011;5069;49.306;8.636;2023-12-20T12:27:51;6.50;;;2.80;;
10059;SDS011;5069;49.306;8.636;2023-12-20T12:30:56;6.67;;;2.83;;
10059;SDS011;5069;49.306;8.636;2023-12-20T12:34:01;8.30;;;2.60;;
10059;SDS011;5069;49.306;8.636;2023-12-20T12:37:03;8.80;;;2.60;;
10059;SDS011;5069;49.306;8.636;2023-12-20T12:40:06;6.53;;;2.47;;
10059;SDS011;5069;49.306;8.636;2023-12-20T12:43:11;5.30;;;2.27;;
10059;SDS011;5069;49.306;8.636;2023-12-20T12:46:14;7.00;;;2.47;;
10059;SDS011;5069;49.306;8.636;2023-12-20T12:49:15;6.47;;;2.40;;
10059;SDS011;5069;49.306;8.636;2023-12-20T12:52:17;4.93;;;2.43;;
10059;SDS011;5069;49.306;8.636;2023-12-20T12:55:18;7.50;;;2.47;;
10059;SDS011;5069;49.306;8.636;2023-12-20T12:58:20;6.73;;;2.83;;
10059;SDS011;5069;49.306;8.636;2023-12-20T13:01:22;7.17;;;3.07;;
10059;SDS011;5069;49.306;8.636;2023-12-20T13:04:23;6.43;;;2.73;;
10059;SDS011;5069;49.306;8.636;2023-12-20T13:07:25;7.67;;;2.40;;
10059;SDS011;5069;49.306;8.636;2023-12-20T13:10:26;7.53;;;2.77;;
10059;SDS011;5069;49.306;8.636;2023-12-20T13:13:28;5.80;;;3.17;;
10059;SDS011;5069;49.306;8.636;2023-12-20T13:16:30;7.23;;;2.30;;
10059;SDS011;5069;49.306;8.636;2023-12-20T13:19:32;11.23;;;2.73;;
10059;SDS011;5069;49.306;8.636;2023-12-20T13:22:33;8.50;;;2.40;;
10059;SDS011;5069;49.306;8.636;2023-12-20T13:25:35;8.00;;;2.63;;
10059;SDS011;5069;49.306;8.636;2023-12-20T13:28:37;5.83;;;2.43;;
10059;SDS011;5069;49.306;8.636;2023-12-20T13:31:38;7.83;;;2.23;;
10059;SDS011;5069;49.306;8.636;2023-12-20T13:34:41;6.87;;;2.30;;
10059;SDS011;5069;49.306;8.636;2023-12-20T13:37:43;7.33;;;2.70;;
10059;SDS011;5069;49.306;8.636;2023-12-20T13:40:46;8.47;;;3.20;;
10059;SDS011;5069;49.306;8.636;2023-12-20T13:43:47;5.60;;;2.80;;
10059;SDS011;5069;49.306;8.636;2023-12-20T13:46:49;5.73;;;2.47;;
10059;SDS011;5069;49.306;8.636;2023-12-20T13:49:51;8.63;;;2.33;;
10059;SDS011;5069;49.306;8.636;2023-12-20T13:52:53;7.33;;;2.73;;
10059;SDS011;5069;49.306;8.636;2023-12-20T13:55:54;6.73;;;2.67;;
10059;SDS011;5069;49.306;8.636;2023-12-20T13:58:56;8.47;;;2.90;;
10059;SDS011;5069;49.306;8.636;2023-12-20T14:01:57;7.13;;;2.83;;
10059;SDS011;5069;49.306;8.636;2023-12-20T14:04:59;6.57;;;2.53;;
10059;SDS011;5069;49.306;8.636;2023-12-20T14:08:00;13.93;;;2.80;;
10059;SDS011;5069;49.306;8.636;2023-12-20T14:11:02;9.03;;;2.60;;
10059;SDS011;5069;49.306;8.636;2023-12-20T14:14:04;8.97;;;2.20;;
10059;SDS011;5069;49.306;8.636;2023-12-20T14:17:06;7.53;;;2.30;;
10059;SDS011;5069;49.306;8.636;2023-12-20T14:20:08;7.07;;;2.87;;
10059;SDS011;5069;49.306;8.636;2023-12-20T14:23:09;6.77;;;2.50;;
10059;SDS011;5069;49.306;8.636;2023-12-20T14:26:11;6.17;;;2.23;;
10059;SDS011;5069;49.306;8.636;2023-12-20T14:29:15;10.50;;;2.30;;
10059;SDS011;5069;49.306;8.636;2023-12-20T14:32:16;7.10;;;2.47;;
10059;SDS011;5069;49.306;8.636;2023-12-20T14:35:18;8.97;;;2.47;;
10059;SDS011;5069;49.306;8.636;2023-12-20T14:38:21;7.33;;;2.23;;
10059;SDS011;5069;49.306;8.636;2023-12-20T14:41:22;6.50;;;2.10;;
10059;SDS011;5069;49.306;8.636;2023-12-20T14:44:25;6.63;;;1.70;;
10059;SDS011;5069;49.306;8.636;2023-12-20T14:47:27;6.40;;;2.13;;
10059;SDS011;5069;49.306;8.636;2023-12-20T14:50:28;10.23;;;2.67;;
10059;SDS011;5069;49.306;8.636;2023-12-20T14:53:30;6.40;;;2.10;;
10059;SDS011;5069;49.306;8.636;2023-12-20T14:56:31;7.10;;;2.07;;
10059;SDS011;5069;49.306;8.636;2023-12-20T14:59:33;7.10;;;2.20;;
10059;SDS011;5069;49.306;8.636;2023-12-20T15:02:34;6.30;;;2.03;;
10059;SDS011;5069;49.306;8.636;2023-12-20T15:05:36;6.07;;;1.67;;
10059;SDS011;5069;49.306;8.636;2023-12-20T15:08:38;6.00;;;2.27;;
10059;SDS011;5069;49.306;8.636;2023-12-20T15:11:39;9.63;;;2.33;;
10059;SDS011;5069;49.306;8.636;2023-12-20T15:14:41;8.43;;;2.07;;
10059;SDS011;5069;49.306;8.636;2023-12-20T15:17:42;8.60;;;2.70;;
10059;SDS011;5069;49.306;8.636;2023-12-20T15:20:44;9.20;;;1.83;;
10059;SDS011;5069;49.306;8.636;2023-12-20T15:23:46;6.53;;;2.30;;
10059;SDS011;5069;49.306;8.636;2023-12-20T15:26:54;7.63;;;2.10;;
10059;SDS011;5069;49.306;8.636;2023-12-20T15:29:56;6.97;;;2.00;;
10059;SDS011;5069;49.306;8.636;2023-12-20T15:32:58;10.03;;;2.37;;
10059;SDS011;5069;49.306;8.636;2023-12-20T15:35:59;9.73;;;2.37;;
10059;SDS011;5069;49.306;8.636;2023-12-20T15:39:01;9.97;;;2.50;;
10059;SDS011;5069;49.306;8.636;2023-12-20T15:42:03;9.03;;;2.33;;
10059;SDS011;5069;49.306;8.636;2023-12-20T15:45:05;6.13;;;2.50;;
10059;SDS011;5069;49.306;8.636;2023-12-20T15:48:08;9.63;;;2.43;;
10059;SDS011;5069;49.306;8.636;2023-12-20T15:51:10;7.80;;;2.10;;
10059;SDS011;5069;49.306;8.636;2023-12-20T15:54:12;7.57;;;2.50;;
10059;SDS011;5069;49.306;8.636;2023-12-20T15:57:14;7.50;;;2.17;;
10059;SDS011;5069;49.306;8.636;2023-12-20T16:00:19;10.70;;;2.40;;
10059;SDS011;5069;49.306;8.636;2023-12-20T16:03:21;8.00;;;2.43;;
10059;SDS011;5069;49.306;8.636;2023-12-20T16:06:26;8.10;;;2.70;;
10059;SDS011;5069;49.306;8.636;2023-12-20T16:09:28;7.50;;;2.40;;
10059;SDS011;5069;49.306;8.636;2023-12-20T16:12:30;7.47;;;1.93;;
10059;SDS011;5069;49.306;8.636;2023-12-20T16:15:31;11.80;;;2.37;;
10059;SDS011;5069;49.306;8.636;2023-12-20T16:18:33;8.57;;;2.17;;
10059;SDS011;5069;49.306;8.636;2023-12-20T16:21:36;5.30;;;2.47;;
10059;SDS011;5069;49.306;8.636;2023-12-20T16:24:39;6.57;;;2.57;;
10059;SDS011;5069;49.306;8.636;2023-12-20T16:27:40;11.07;;;5.27;;
10059;SDS011;5069;49.306;8.636;2023-12-20T16:30:44;11.30;;;2.83;;
10059;SDS011;5069;49.306;8.636;2023-12-20T16:33:45;7.27;;;2.23;;
10059;SDS011;5069;49.306;8.636;2023-12-20T16:36:51;7.40;;;2.57;;
10059;SDS011;5069;49.306;8.636;2023-12-20T16:39:55;6.90;;;2.47;;
10059;SDS011;5069;49.306;8.636;2023-12-20T16:42:57;13.20;;;2.63;;
10059;SDS011;5069;49.306;8.636;2023-12-20T16:45:58;11.93;;;2.70;;
10059;SDS011;5069;49.306;8.636;2023-12-20T16:49:01;10.30;;;2.90;;
10059;SDS011;5069;49.306;8.636;2023-12-20T16:52:03;10.03;;;3.20;;
10059;SDS011;5069;49.306;8.636;2023-12-20T16:55:09;8.43;;;3.27;;
10059;SDS011;5069;49.306;8.636;2023-12-20T16:58:12;8.77;;;2.43;;
10059;SDS011;5069;49.306;8.636;2023-12-20T17:01:14;10.47;;;2.40;;
10059;SDS011;5069;49.306;8.636;2023-12-20T17:04:17;7.13;;;1.90;;
10059;SDS011;5069;49.306;8.636;2023-12-20T17:07:18;10.53;;;2.30;;
10059;SDS011;5069;49.306;8.636;2023-12-20T17:10:20;6.17;;;2.53;;
10059;SDS011;5069;49.306;8.636;2023-12-20T17:13:22;10.03;;;2.17;;
10059;SDS011;5069;49.306;8.636;2023-12-20T17:16:24;9.47;;;2.30;;
10059;SDS011;5069;49.306;8.636;2023-12-20T17:19:25;7.37;;;2.13;;
10059;SDS011;5069;49.306;8.636;2023-12-20T17:22:27;11.67;;;2.43;;
10059;SDS011;5069;49.306;8.636;2023-12-20T17:25:28;5.03;;;2.00;;
10059;SDS011;5069;49.306;8.636;2023-12-20T17:28:30;9.83;;;2.60;;
10059;SDS011;5069;49.306;8.636;2023-12-20T17:31:31;7.80;;;2.63;;
10059;SDS011;5069;49.306;8.636;2023-12-20T17:34:33;6.63;;;2.47;;
10059;SDS011;5069;49.306;8.636;2023-12-20T17:37:35;6.87;;;2.47;;
10059;SDS011;5069;49.306;8.636;2023-12-20T17:40:36;8.20;;;2.43;;
10059;SDS011;5069;49.306;8.636;2023-12-20T17:43:40;10.23;;;3.03;;
10059;SDS011;5069;49.306;8.636;2023-12-20T17:46:43;10.10;;;2.10;;
10059;SDS011;5069;49.306;8.636;2023-12-20T17:49:45;9.53;;;2.53;;
10059;SDS011;5069;49.306;8.636;2023-12-20T17:52:46;7.87;;;2.50;;
10059;SDS011;5069;49.306;8.636;2023-12-20T17:55:48;7.63;;;2.30;;
10059;SDS011;5069;49.306;8.636;2023-12-20T17:58:49;10.67;;;3.83;;
10059;SDS011;5069;49.306;8.636;2023-12-20T18:01:51;10.33;;;3.07;;
10059;SDS011;5069;49.306;8.636;2023-12-20T18:04:53;6.77;;;2.10;;
10059;SDS011;5069;49.306;8.636;2023-12-20T18:07:54;5.30;;;2.33;;
10059;SDS011;5069;49.306;8.636;2023-12-20T18:10:55;5.80;;;2.20;;
10059;SDS011;5069;49.306;8.636;2023-12-20T18:13:57;8.50;;;2.37;;
10059;SDS011;5069;49.306;8.636;2023-12-20T18:16:59;7.77;;;2.43;;
10059;SDS011;5069;49.306;8.636;2023-12-20T18:20:01;6.47;;;2.30;;
10059;SDS011;5069;49.306;8.636;2023-12-20T18:23:03;4.20;;;1.80;;
10059;SDS011;5069;49.306;8.636;2023-12-20T18:26:05;5.63;;;1.97;;
10059;SDS011;5069;49.306;8.636;2023-12-20T18:29:06;6.60;;;2.33;;
10059;SDS011;5069;49.306;8.636;2023-12-20T18:32:08;7.00;;;2.40;;
10059;SDS011;5069;49.306;8.636;2023-12-20T18:35:09;6.57;;;2.23;;
10059;SDS011;5069;49.306;8.636;2023-12-20T18:38:11;5.13;;;1.80;;
10059;SDS011;5069;49.306;8.636;2023-12-20T18:41:14;4.23;;;1.97;;
10059;SDS011;5069;49.306;8.636;2023-12-20T18:44:16;8.13;;;2.40;;
10059;SDS011;5069;49.306;8.636;2023-12-20T18:47:18;4.87;;;1.80;;